Latest Weather Observations for Strathalbyn

IDS60801

Issued at 8:01 pm CST Thursday 5 May 2016 (issued every 30 minutes, with the page automatically refreshed every 10 minutes)

About weather observations | Map of weather stations | Latest weather observations for SA | Other Formats
Station Details ID: 024580 Name: STRATHALBYN RACECOURSE Lat: -35.28 Lon: 138.89 Height: 58.0 m
Data from the previous 72 hours. | See also: Recent months at Strathalbyn
Date/Time
CST
Temp
°C
App
Temp
°C
Dew
Point
Rel
Hum
%
Delta-T
°C
Wind Press
QNH
hPa
Press
MSL
hPa
Rain
since 9 am
mm
Dir
 
Spd
km/h
Gust
km/h
Spd
kts
Gust
kts
05/08:00pm 18.6 16.2 8.8 53 5.1 N 11 15 6 8 1011.6 - 0.0
05/07:30pm 19.7 17.2 8.4 48 5.9 NNE 11 15 6 8 1011.6 - 0.0
05/07:00pm 20.1 17.4 8.8 48 5.9 NNE 13 19 7 10 1011.3 - 0.0
05/06:30pm 21.0 17.8 8.6 45 6.5 N 15 22 8 12 1011.2 - 0.0
05/06:00pm 21.2 17.6 8.5 44 6.7 NNW 17 32 9 17 1011.0 1011.0 0.0
05/05:30pm 21.7 17.5 8.2 42 7.1 NNW 20 30 11 16 1010.9 - 0.0
05/05:00pm 22.2 17.6 8.3 41 7.3 NNW 22 39 12 21 1010.6 - 0.0
05/04:30pm 22.9 18.8 8.6 40 7.6 NW 20 30 11 16 1010.8 - 0.0
05/04:00pm 23.2 17.1 8.1 38 8.0 NNW 30 41 16 22 1010.7 - 0.0
05/03:30pm 23.3 16.8 8.2 38 8.0 NW 32 50 17 27 1010.7 - 0.0
05/03:00pm 23.4 17.0 8.7 39 7.9 NNW 32 50 17 27 1010.8 1010.8 0.0
05/02:51pm 23.4 17.3 8.3 38 8.0 NW 30 50 16 27 1010.8 - 0.0
05/02:30pm 23.2 16.9 8.9 40 7.7 NW 32 46 17 25 1011.1 - 0.0
05/02:00pm 23.0 16.1 9.0 41 7.5 NW 35 48 19 26 1011.3 - 0.0
05/01:31pm 23.1 16.3 9.1 41 7.5 NW 35 54 19 29 1011.3 - 0.0
05/01:30pm 23.2 16.0 9.2 41 7.6 NW 37 54 20 29 1011.3 - 0.0
05/01:00pm 23.3 16.7 10.0 43 7.3 NW 35 46 19 25 1011.5 - 0.0
05/12:30pm 22.5 15.0 9.3 43 7.1 NW 39 54 21 29 1011.9 - 0.0
05/12:07pm 22.2 14.7 9.4 44 6.9 NW 39 57 21 31 1012.2 - 0.0
05/12:00pm 22.2 15.1 9.4 44 6.9 NW 37 52 20 28 1012.3 1012.3 0.0
05/11:30am 21.5 14.4 9.4 46 6.5 NW 37 52 20 28 1012.8 - 0.0
05/11:00am 20.8 14.6 9.4 48 6.1 NW 32 46 17 25 1013.3 - 0.0
05/10:30am 20.5 13.7 9.4 49 5.9 NW 35 50 19 27 1013.5 - 0.0
05/10:00am 20.3 12.4 9.5 50 5.8 NW 41 57 22 31 1013.5 - 0.0
05/09:30am 19.7 13.9 9.6 52 5.4 NNW 30 48 16 26 1013.9 - 0.0
05/09:29am 19.7 14.3 9.6 52 5.4 NNW 28 46 15 25 1013.9 - 0.0
05/09:00am 18.5 16.2 10.6 60 4.3 NNE 13 24 7 13 1014.2 1014.3 0.4
05/08:30am 16.8 14.4 10.2 65 3.5 N 13 22 7 12 1014.5 - 0.4
05/08:00am 15.1 13.5 10.3 73 2.5 N 9 13 5 7 1014.4 - 0.4
05/07:30am 13.7 12.0 9.9 78 2.0 NNE 9 15 5 8 1014.2 - 0.4
05/07:00am 13.7 10.5 9.9 78 2.0 N 17 20 9 11 1013.9 - 0.4
05/06:30am 13.4 11.4 10.0 80 1.8 N 11 13 6 7 1014.2 - 0.4
05/06:00am 15.2 12.9 10.4 73 2.5 N 13 19 7 10 1014.0 1014.0 0.4
05/05:30am 16.0 13.4 10.7 71 2.8 N 15 22 8 12 1014.0 - 0.4
05/05:00am 16.2 13.7 10.9 71 2.8 N 15 20 8 11 1013.9 - 0.4
05/04:30am 16.3 14.3 11.5 73 2.6 N 13 24 7 13 1013.9 - 0.4
05/04:00am 16.0 14.0 11.6 75 2.4 N 13 19 7 10 1013.7 - 0.4
05/03:30am 16.2 14.0 12.0 76 2.3 N 15 22 8 12 1013.8 - 0.4
05/03:00am 15.7 14.8 11.5 76 2.3 NNW 7 11 4 6 1014.1 1014.1 0.4
05/02:30am 16.0 15.2 11.6 75 2.4 NNW 7 13 4 7 1014.2 - 0.4
05/02:00am 16.2 13.9 11.6 74 2.5 NW 15 24 8 13 1014.4 - 0.4
05/01:30am 16.9 14.4 11.0 68 3.2 NNW 15 26 8 14 1014.6 - 0.4
05/01:00am 16.9 14.6 10.5 66 3.4 NW 13 20 7 11 1014.6 - 0.4
05/12:30am 16.6 15.1 10.5 67 3.2 NW 9 15 5 8 1014.7 - 0.4
05/12:00am 16.4 14.2 10.7 69 3.0 NNW 13 17 7 9 1014.8 1014.9 0.4
 
Date/Time
CST
Temp
°C
App
Temp
°C
Dew
Point
Rel
Hum
%
Delta-T
°C
Wind Press
QNH
hPa
Press
MSL
hPa
Rain
since 9 am
mm
Dir
 
Spd
km/h
Gust
km/h
Spd
kts
Gust
kts
04/11:30pm 14.2 13.1 10.6 79 1.9 N 7 9 4 5 1014.9 - 0.4
04/11:00pm 12.5 11.3 9.5 82 1.5 N 6 7 3 4 1015.0 - 0.4
04/10:30pm 12.2 10.3 9.2 82 1.5 N 9 9 5 5 1015.3 - 0.4
04/10:00pm 12.9 11.5 9.4 79 1.8 N 7 9 4 5 1015.6 - 0.4
04/09:30pm 13.2 13.1 9.3 77 2.0 CALM 0 7 0 4 1015.5 - 0.4
04/09:00pm 13.6 12.1 9.3 75 2.2 N 7 15 4 8 1015.6 1015.7 0.4
04/08:30pm 14.0 13.2 9.6 75 2.3 N 4 9 2 5 1015.6 - 0.4
04/08:00pm 14.3 12.9 9.7 74 2.4 NNE 7 9 4 5 1015.4 - 0.4
04/07:30pm 14.8 13.1 10.0 73 2.5 N 9 11 5 6 1015.4 - 0.4
04/07:00pm 15.5 13.5 10.1 70 2.8 N 11 17 6 9 1015.2 - 0.4
04/06:30pm 15.9 14.3 10.2 69 3.0 N 9 11 5 6 1015.1 - 0.4
04/06:00pm 15.8 14.2 10.1 69 3.0 N 9 15 5 8 1014.9 1015.0 0.4
04/05:30pm 16.4 14.1 10.3 67 3.2 NW 13 17 7 9 1014.7 - 0.4
04/05:00pm 16.6 13.4 10.0 65 3.5 NW 17 28 9 15 1014.6 - 0.4
04/04:30pm 16.8 12.2 9.5 62 3.8 NW 24 35 13 19 1014.6 - 0.4
04/04:00pm 16.7 12.1 9.6 63 3.7 NW 24 37 13 20 1014.6 - 0.4
04/03:30pm 17.1 12.9 9.8 62 3.8 NW 22 32 12 17 1014.4 - 0.4
04/03:00pm 17.7 12.6 9.1 57 4.5 NW 26 37 14 20 1014.4 1014.5 0.4
04/02:30pm 17.8 13.3 9.9 60 4.2 WNW 24 32 13 17 1014.5 - 0.4
04/02:00pm 16.2 12.7 10.9 71 2.8 W 20 30 11 16 1014.9 - 0.4
04/01:30pm 16.5 13.0 10.8 69 3.1 W 20 30 11 16 1015.1 - 0.4
04/01:00pm 16.7 12.2 10.1 65 3.5 NW 24 35 13 19 1015.4 - 0.4
04/12:30pm 16.4 12.8 10.7 69 3.0 WNW 20 26 11 14 1015.7 - 0.4
04/12:00pm 16.0 12.1 9.4 65 3.4 WNW 20 28 11 15 1016.1 1016.2 0.4
04/11:30am 16.4 12.7 9.3 63 3.7 WNW 19 26 10 14 1016.2 - 0.4
04/11:00am 15.2 14.4 11.0 76 2.2 WSW 6 9 3 5 1016.5 - 0.4
04/10:30am 13.8 12.9 10.8 82 1.6 WSW 6 9 3 5 1016.7 - 0.4
04/10:00am 13.0 10.7 10.4 84 1.4 W 13 19 7 10 1017.0 - 0.4
04/09:30am 14.4 11.9 9.6 73 2.5 NW 13 15 7 8 1016.7 - 0.0
04/09:00am 14.6 12.5 9.6 72 2.6 NW 11 15 6 8 1016.6 1016.7 2.6
04/08:30am 14.0 12.1 10.4 79 1.9 NW 11 15 6 8 1016.3 - 2.6
04/08:00am 13.0 11.1 10.4 84 1.4 NW 11 13 6 7 1016.1 - 2.6
04/07:30am 10.9 9.1 9.3 90 0.8 WNW 9 11 5 6 1015.7 - 2.6
04/07:00am 10.3 8.3 8.6 89 0.8 WNW 9 11 5 6 1015.3 - 2.6
04/06:30am 10.0 7.4 7.6 85 1.2 WNW 11 13 6 7 1014.9 - 2.6
04/06:00am 10.7 8.6 8.1 84 1.3 WNW 9 11 5 6 1014.5 1014.6 2.6
04/05:30am 11.1 9.2 9.0 87 1.0 WNW 9 11 5 6 1014.4 - 2.6
04/05:00am 10.9 9.3 8.7 86 1.1 WNW 7 9 4 5 1014.0 - 2.6
04/04:30am 11.2 9.3 8.9 86 1.1 NW 9 11 5 6 1013.8 - 2.6
04/04:00am 12.1 9.1 9.1 82 1.5 WNW 15 20 8 11 1013.6 - 2.6
04/03:30am 11.7 9.8 9.1 84 1.3 WNW 9 11 5 6 1013.7 - 2.6
04/03:00am 12.4 9.8 9.4 82 1.5 WNW 13 17 7 9 1013.6 1013.6 2.6
04/02:30am 11.9 9.0 9.5 85 1.2 NW 15 17 8 9 1013.4 - 2.6
04/02:00am 11.4 9.1 9.1 86 1.2 WNW 11 15 6 8 1013.1 - 2.6
04/01:30am 11.9 10.0 8.9 82 1.5 WNW 9 11 5 6 1013.1 - 2.6
04/01:00am 12.5 9.8 8.8 78 1.9 WNW 13 15 7 8 1013.2 - 2.6
04/12:30am 12.3 10.1 9.3 82 1.5 W 11 15 6 8 1013.3 - 2.6
04/12:00am 12.1 10.2 8.9 81 1.6 W 9 11 5 6 1013.2 1013.2 2.6
 
Date/Time
CST
Temp
°C
App
Temp
°C
Dew
Point
Rel
Hum
%
Delta-T
°C
Wind Press
QNH
hPa
Press
MSL
hPa
Rain
since 9 am
mm
Dir
 
Spd
km/h
Gust
km/h
Spd
kts
Gust
kts
03/11:30pm 12.5 10.8 8.4 76 2.0 W 7 9 4 5 1013.1 - 2.6
03/11:00pm 12.8 11.3 9.3 79 1.8 W 7 9 4 5 1013.0 - 2.6
03/10:30pm 12.9 11.3 10.1 83 1.4 W 9 11 5 6 1013.0 - 2.6
03/10:00pm 13.0 11.7 9.8 81 1.6 W 7 9 4 5 1012.9 - 2.6
03/09:30pm 12.7 10.9 9.3 80 1.7 W 9 11 5 6 1012.7 - 2.6
03/09:00pm 13.6 11.2 8.7 72 2.5 W 11 17 6 9 1012.4 1012.4 2.6
03/08:30pm 14.2 11.1 8.8 70 2.7 W 15 30 8 16 1012.2 - 2.6
03/08:00pm 13.6 11.8 9.5 76 2.1 W 9 15 5 8 1011.7 - 2.6
03/07:30pm 13.8 11.6 9.5 75 2.2 W 11 17 6 9 1011.2 - 2.6
03/07:00pm 14.0 11.3 8.8 71 2.6 W 13 20 7 11 1010.5 - 2.6
03/06:30pm 14.1 12.5 10.1 77 2.1 WSW 9 15 5 8 1010.2 - 2.6
03/06:00pm 14.0 12.6 11.0 82 1.6 WSW 9 11 5 6 1009.7 1009.7 2.6
03/05:30pm 14.1 12.3 10.9 81 1.7 WSW 11 17 6 9 1009.1 - 2.6
03/05:00pm 14.4 10.9 11.0 80 1.8 WSW 20 33 11 18 1008.8 - 2.6
03/04:30pm 14.4 10.1 10.8 79 1.9 WSW 24 37 13 20 1008.4 - 2.6
03/04:00pm 15.3 11.3 11.7 79 1.9 WSW 24 39 13 21 1008.0 - 2.6
03/03:30pm 15.9 13.6 13.0 83 1.6 WSW 17 24 9 13 1007.1 - 2.4
03/03:00pm 15.6 11.5 12.7 83 1.6 W 26 37 14 20 1006.8 1006.8 2.4
03/02:30pm 16.2 12.7 12.2 77 2.2 W 22 35 12 19 1006.2 - 2.0
03/02:00pm 16.0 11.1 12.6 80 1.9 W 30 46 16 25 1006.0 - 2.0
03/01:36pm 15.8 10.9 12.5 81 1.8 W 30 57 16 31 1006.0 - 1.6
03/01:30pm 16.7 12.8 13.4 81 1.9 W 26 39 14 21 1005.7 - 1.0
03/01:01pm 19.3 14.4 11.3 60 4.4 W 28 46 15 25 1005.4 - 0.8
03/01:00pm 19.4 14.1 11.4 60 4.4 W 30 46 16 25 1005.4 - 0.8
03/12:30pm 19.0 12.2 10.8 59 4.5 W 37 56 20 30 1005.6 - 0.8
03/12:00pm 19.0 13.4 10.0 56 4.8 W 30 52 16 28 1005.8 1005.8 0.8
03/11:30am 18.9 12.3 11.2 61 4.2 W 37 56 20 30 1005.8 - 0.8
03/11:12am 18.7 12.5 11.5 63 4.0 W 35 54 19 29 1005.8 - 0.8
03/11:00am 18.3 12.7 12.1 67 3.4 W 33 50 18 27 1005.8 - 0.8
03/10:30am 17.0 12.5 12.7 76 2.4 W 28 54 15 29 1005.7 - 0.8
03/10:05am 16.7 12.5 13.4 81 1.9 W 28 46 15 25 1005.6 - 0.6
03/10:00am 16.1 10.9 12.8 81 1.8 W 32 46 17 25 1005.7 - 0.6
03/09:36am 16.8 10.8 13.3 80 2.0 W 37 61 20 33 1005.2 - 0.4
03/09:30am 17.0 11.5 13.5 80 2.0 W 35 50 19 27 1005.1 - 0.4
03/09:17am 16.7 7.9 13.4 81 1.9 WNW 52 72 28 39 1005.0 - 0.4
03/09:16am 16.6 7.0 13.3 81 1.9 WNW 56 72 30 39 1005.0 - 0.4
03/09:15am 16.5 11.9 13.4 82 1.7 WNW 30 72 16 39 1005.1 - 0.4
03/09:14am 16.4 12.3 13.7 84 1.5 WNW 28 48 15 26 1005.1 - 0.4
03/09:00am 16.2 13.6 13.9 86 1.3 W 20 30 11 16 1005.0 1005.0 1.4
03/08:30am 16.8 11.1 13.1 79 2.1 NW 35 57 19 31 1004.4 - 0.6
03/08:15am 17.2 11.0 12.5 74 2.6 NW 37 59 20 32 1004.2 - 0.6
03/08:00am 16.7 10.1 12.7 77 2.2 NW 39 54 21 29 1004.2 - 0.6
03/07:30am 16.6 11.1 12.4 76 2.3 NW 33 54 18 29 1004.2 - 0.6
03/07:00am 16.8 10.3 11.7 72 2.8 NW 37 59 20 32 1004.0 - 0.6
03/06:54am 16.5 10.4 11.9 74 2.5 NW 35 54 19 29 1004.1 - 0.6
03/06:30am 16.8 11.1 11.7 72 2.8 NW 33 48 18 26 1004.2 - 0.6
03/06:21am 16.8 11.1 11.7 72 2.8 NW 33 52 18 28 1004.3 - 0.6
03/06:00am 16.7 11.1 11.6 72 2.8 NW 32 44 17 24 1004.4 1004.4 0.6
03/05:43am 16.5 11.3 11.6 73 2.7 NW 30 48 16 26 1004.6 - 0.6
03/05:30am 16.5 10.7 11.4 72 2.8 NW 33 48 18 26 1004.4 - 0.6
03/05:11am 16.5 10.3 11.4 72 2.8 NW 35 59 19 32 1004.3 - 0.6
03/05:00am 16.4 9.4 11.3 72 2.8 NW 39 50 21 27 1004.2 - 0.6
03/04:47am 16.4 10.2 11.3 72 2.8 NW 35 54 19 29 1004.5 - 0.6
03/04:30am 16.1 10.2 11.3 73 2.6 NW 33 50 18 27 1004.5 - 0.6
03/04:00am 15.2 10.1 11.8 80 1.8 NNW 30 48 16 26 1005.0 - 0.6
03/03:38am 16.4 10.4 10.9 70 2.9 NW 33 52 18 28 1005.1 - 0.6
03/03:30am 16.5 10.6 11.0 70 3.0 NW 33 46 18 25 1005.2 - 0.6
03/03:04am 16.6 11.6 11.1 70 3.0 NNW 28 46 15 25 1005.3 - 0.6
03/03:00am 16.5 11.6 11.2 71 2.9 NNW 28 43 15 23 1005.3 1005.3 0.6
03/02:30am 16.2 10.4 10.9 71 2.8 NNW 32 44 17 24 1005.6 - 0.6
03/02:01am 16.5 11.1 11.0 70 3.0 NW 30 50 16 27 1006.0 - 0.6
03/02:00am 16.4 11.1 11.1 71 2.9 NW 30 43 16 23 1006.1 - 0.6
03/01:30am 16.6 11.0 11.5 72 2.8 NW 32 48 17 26 1006.7 - 0.6
03/01:00am 16.5 11.0 11.9 74 2.5 NW 32 52 17 28 1007.2 - 0.6
03/12:59am 16.5 11.0 11.9 74 2.5 NW 32 52 17 28 1007.2 - 0.6
03/12:30am 16.0 10.6 12.2 78 2.1 NW 32 46 17 25 1007.6 - 0.4
03/12:08am 16.2 11.2 12.2 77 2.2 NW 30 48 16 26 1007.8 - 0.2
03/12:00am 16.2 10.8 12.2 77 2.2 NW 32 43 17 23 1007.9 1007.9 0.0
 
Date/Time
CST
Temp
°C
App
Temp
°C
Dew
Point
Rel
Hum
%
Delta-T
°C
Wind Press
QNH
hPa
Press
MSL
hPa
Rain
since 9 am
mm
Dir
 
Spd
km/h
Gust
km/h
Spd
kts
Gust
kts
02/11:35pm 16.0 10.5 11.8 76 2.3 NW 32 54 17 29 1008.2 - 0.0
02/11:30pm 15.9 10.4 11.7 76 2.3 NW 32 44 17 24 1008.1 - 0.0
02/11:08pm 16.2 11.4 11.6 74 2.5 NW 28 46 15 25 1008.2 - 0.0
02/11:00pm 15.9 10.4 11.7 76 2.3 NW 32 44 17 24 1008.3 - 0.0
02/10:30pm 17.1 11.8 11.2 68 3.2 NW 30 54 16 29 1008.5 - 0.0
02/10:01pm 17.0 11.2 10.8 67 3.3 NW 32 54 17 29 1008.6 - 0.0
02/10:00pm 17.0 11.6 10.8 67 3.3 NW 30 46 16 25 1008.6 - 0.0
02/09:30pm 16.4 11.3 12.0 75 2.4 NW 30 44 16 24 1008.6 - 0.0
02/09:12pm 16.6 11.9 11.9 74 2.6 NW 28 46 15 25 1008.9 - 0.0
02/09:00pm 16.6 13.2 12.4 76 2.3 NW 22 35 12 19 1009.1 1009.1 0.0
02/08:30pm 16.8 12.9 12.1 74 2.6 NW 24 32 13 17 1009.2 - 0.0

Other Formats:

Comma delimited format used in spreadsheet applications
http://www.bom.gov.au/fwo/IDS60801/IDS60801.94814.axf

JavaScript Object Notation format (JSON) in row-major order
http://www.bom.gov.au/fwo/IDS60801/IDS60801.94814.json